createdAt,value
2019-03-16T00:01:01.463Z,12.70
2019-03-16T00:03:29.027Z,12.40
2019-03-16T00:05:56.573Z,12.40
2019-03-16T00:08:24.865Z,12.30
2019-03-16T00:10:52.438Z,11.90
2019-03-16T00:13:20.295Z,12.40
2019-03-16T00:15:48.544Z,12.60
2019-03-16T00:18:17.310Z,12.60
2019-03-16T00:20:44.952Z,12.40
2019-03-16T00:23:12.553Z,12.50
2019-03-16T00:25:40.397Z,12.50
2019-03-16T00:28:08.294Z,12.50
2019-03-16T00:30:36.154Z,12.50
2019-03-16T00:33:04.002Z,12.40
2019-03-16T00:35:31.587Z,12.30
2019-03-16T00:37:59.794Z,12.40
2019-03-16T00:40:27.611Z,12.70
2019-03-16T00:42:55.126Z,12.60
2019-03-16T00:45:22.600Z,12.60
2019-03-16T00:47:50.214Z,12.70
2019-03-16T00:50:17.858Z,12.80
2019-03-16T00:52:45.659Z,12.60
2019-03-16T00:55:13.222Z,12.60
2019-03-16T00:57:41.217Z,12.60
2019-03-16T01:00:09.502Z,12.70
2019-03-16T01:02:37.980Z,12.60
2019-03-16T01:05:05.662Z,12.70
2019-03-16T01:07:33.495Z,12.70
2019-03-16T01:10:01.869Z,12.60
2019-03-16T01:12:30.383Z,12.60
2019-03-16T01:14:58.283Z,12.60
2019-03-16T01:17:26.018Z,12.60
2019-03-16T01:19:53.822Z,12.60
2019-03-16T01:22:21.332Z,12.70
2019-03-16T01:24:48.834Z,12.40
2019-03-16T01:27:16.951Z,12.60
2019-03-16T01:29:44.533Z,12.50
2019-03-16T01:32:12.178Z,12.20
2019-03-16T01:34:40.372Z,12.40
2019-03-16T01:37:07.876Z,12.30
2019-03-16T01:39:35.716Z,12.10
2019-03-16T01:42:03.567Z,12.40
2019-03-16T01:44:33.242Z,12.20
2019-03-16T01:47:00.852Z,12.10
2019-03-16T01:49:28.747Z,12.20
2019-03-16T01:51:57.308Z,12.10
2019-03-16T01:54:24.870Z,12.10
2019-03-16T01:56:52.739Z,12.30
2019-03-16T01:59:20.201Z,12.00
2019-03-16T02:01:49.480Z,12.10
2019-03-16T02:04:18.034Z,12.10
2019-03-16T02:06:45.895Z,12.00
2019-03-16T02:09:13.754Z,12.10
2019-03-16T02:11:41.476Z,12.10
2019-03-16T02:14:09.066Z,12.20
2019-03-16T02:16:36.570Z,12.20
2019-03-16T02:19:04.174Z,12.10
2019-03-16T02:21:32.350Z,12.10
2019-03-16T02:24:00.199Z,12.10
2019-03-16T02:26:27.660Z,11.60
2019-03-16T02:28:55.263Z,11.90
2019-03-16T02:31:22.873Z,12.00
2019-03-16T02:33:51.056Z,12.00
2019-03-16T02:36:18.604Z,12.00
2019-03-16T02:38:46.165Z,11.90
2019-03-16T02:41:14.049Z,12.00
2019-03-16T02:43:41.619Z,11.80
2019-03-16T02:46:09.982Z,11.80
2019-03-16T02:48:37.746Z,11.60
2019-03-16T02:51:05.637Z,11.80
2019-03-16T02:53:33.547Z,11.60
2019-03-16T02:56:01.430Z,11.70
2019-03-16T02:58:29.215Z,11.90
2019-03-16T03:00:57.055Z,11.90
2019-03-16T03:03:29.685Z,11.60
2019-03-16T03:05:54.660Z,11.90
2019-03-16T03:08:22.606Z,11.70
2019-03-16T03:10:50.416Z,11.60
2019-03-16T03:13:18.273Z,11.40
2019-03-16T03:15:46.207Z,11.70
2019-03-16T03:18:16.391Z,11.50
2019-03-16T03:20:44.291Z,11.50
2019-03-16T03:23:11.859Z,11.70
2019-03-16T03:25:39.809Z,11.60
2019-03-16T03:28:07.742Z,11.50
2019-03-16T03:30:35.877Z,11.70
2019-03-16T03:33:03.465Z,11.60
2019-03-16T03:35:31.057Z,11.70
2019-03-16T03:37:58.804Z,10.90
2019-03-16T03:40:26.716Z,11.50
2019-03-16T03:42:54.290Z,11.60
2019-03-16T03:45:22.166Z,11.70
2019-03-16T03:47:50.038Z,11.30
2019-03-16T03:50:18.050Z,11.00
2019-03-16T03:52:45.967Z,11.20
2019-03-16T03:55:13.668Z,11.50
2019-03-16T03:57:41.266Z,11.40
2019-03-16T04:00:09.241Z,11.40
2019-03-16T04:02:37.134Z,11.20
2019-03-16T04:05:06.302Z,11.40
2019-03-16T04:07:34.243Z,11.20
2019-03-16T04:10:02.395Z,11.30
2019-03-16T04:12:30.584Z,11.20
2019-03-16T04:14:58.084Z,11.40
2019-03-16T04:17:25.852Z,11.20
2019-03-16T04:19:53.699Z,11.20
2019-03-16T04:22:21.563Z,11.30
2019-03-16T04:24:49.195Z,11.00
2019-03-16T04:27:17.328Z,11.10
2019-03-16T04:29:45.202Z,11.40
2019-03-16T04:32:13.102Z,11.20
2019-03-16T04:34:44.767Z,11.20
2019-03-16T04:37:11.039Z,10.90
2019-03-16T04:39:39.255Z,11.30
2019-03-16T04:42:07.272Z,11.40
2019-03-16T04:44:35.137Z,11.00
2019-03-16T04:47:02.706Z,11.30
2019-03-16T04:49:31.098Z,11.30
2019-03-16T04:51:59.040Z,11.10
2019-03-16T04:54:26.526Z,11.10
2019-03-16T04:56:54.680Z,11.40
2019-03-16T04:59:22.878Z,11.30
2019-03-16T05:01:50.590Z,11.30
2019-03-16T05:04:18.760Z,11.30
2019-03-16T05:06:46.322Z,10.50
2019-03-16T05:09:13.832Z,11.30
2019-03-16T05:11:42.029Z,11.20
2019-03-16T05:14:09.932Z,11.10
2019-03-16T05:16:37.866Z,10.90
2019-03-16T05:19:05.457Z,11.30
2019-03-16T05:21:33.349Z,11.10
2019-03-16T05:24:02.855Z,11.30
2019-03-16T05:26:30.651Z,11.00
2019-03-16T05:28:58.131Z,11.10
2019-03-16T05:31:25.618Z,11.10
2019-03-16T05:33:53.420Z,11.40
2019-03-16T05:36:21.056Z,11.40
2019-03-16T05:38:48.550Z,11.30
2019-03-16T05:41:16.788Z,11.30
2019-03-16T05:43:45.015Z,11.60
2019-03-16T05:46:12.658Z,11.30
2019-03-16T05:48:40.430Z,11.30
2019-03-16T05:51:08.339Z,11.60
2019-03-16T05:53:36.091Z,11.70
2019-03-16T05:56:03.599Z,11.70
2019-03-16T05:58:31.486Z,11.30
2019-03-16T06:00:59.011Z,11.70
2019-03-16T06:03:26.844Z,11.80
2019-03-16T06:05:54.706Z,11.50
2019-03-16T06:08:22.778Z,11.70
2019-03-16T06:10:50.890Z,11.50
2019-03-16T06:13:18.426Z,11.80
2019-03-16T06:15:46.070Z,11.50
2019-03-16T06:18:14.318Z,11.30
2019-03-16T06:20:42.255Z,11.60
2019-03-16T06:23:09.723Z,11.70
2019-03-16T06:25:37.594Z,11.40
2019-03-16T06:28:05.704Z,11.40
2019-03-16T06:30:33.434Z,11.70
2019-03-16T06:33:02.001Z,11.50
2019-03-16T06:35:29.721Z,11.70
2019-03-16T06:37:57.261Z,11.80
2019-03-16T06:40:24.910Z,11.70
2019-03-16T06:42:52.751Z,11.90
2019-03-16T06:45:20.344Z,12.00
2019-03-16T06:47:48.206Z,11.90
2019-03-16T06:50:15.829Z,11.80
2019-03-16T06:52:43.701Z,12.10
2019-03-16T06:55:11.426Z,11.90
2019-03-16T06:57:39.102Z,12.10
2019-03-16T07:00:08.408Z,12.10
2019-03-16T07:02:36.352Z,11.50
2019-03-16T07:05:04.662Z,12.00
2019-03-16T07:07:32.142Z,12.10
2019-03-16T07:09:59.687Z,12.00
2019-03-16T07:12:27.853Z,12.20
2019-03-16T07:14:56.091Z,12.40
2019-03-16T07:17:23.831Z,12.30
2019-03-16T07:19:51.737Z,12.20
2019-03-16T07:22:20.065Z,12.40
2019-03-16T07:24:51.302Z,12.00
2019-03-16T07:27:26.106Z,12.40
2019-03-16T07:29:49.989Z,12.30
2019-03-16T07:32:17.816Z,12.40
2019-03-16T07:34:46.060Z,12.20
2019-03-16T07:37:13.664Z,12.40
2019-03-16T07:39:41.546Z,12.20
2019-03-16T07:42:09.282Z,12.30
2019-03-16T07:44:38.793Z,12.30
2019-03-16T07:47:16.695Z,12.30
2019-03-16T07:49:44.519Z,12.40
2019-03-16T07:52:12.427Z,11.80
2019-03-16T07:54:43.575Z,12.10
2019-03-16T07:57:12.548Z,12.30
2019-03-16T07:59:42.491Z,12.20
2019-03-16T08:02:15.116Z,12.30
2019-03-16T08:04:44.481Z,12.50
2019-03-16T08:07:12.236Z,12.30
2019-03-16T08:09:39.831Z,12.50
2019-03-16T08:12:07.635Z,12.40
2019-03-16T08:14:37.661Z,12.70
2019-03-16T08:17:09.547Z,12.70
2019-03-16T08:19:37.402Z,12.50
2019-03-16T08:22:05.167Z,12.70
2019-03-16T08:24:35.170Z,12.70
2019-03-16T08:27:02.815Z,12.60
2019-03-16T08:29:31.019Z,12.90
2019-03-16T08:31:58.821Z,12.90
2019-03-16T08:34:31.776Z,12.60
2019-03-16T08:36:59.744Z,12.60
2019-03-16T08:39:33.259Z,12.40
2019-03-16T08:42:06.914Z,12.20
2019-03-16T08:44:34.554Z,12.30
2019-03-16T08:47:02.378Z,12.20
2019-03-16T08:49:30.197Z,12.50
2019-03-16T08:51:58.135Z,12.40
2019-03-16T08:54:25.718Z,12.30
2019-03-16T08:56:53.658Z,12.50
2019-03-16T08:59:24.342Z,12.40
2019-03-16T09:01:51.296Z,12.40
2019-03-16T09:04:18.906Z,12.50
2019-03-16T09:06:46.559Z,12.70
2019-03-16T09:09:14.382Z,12.40
2019-03-16T09:11:42.196Z,12.90
2019-03-16T09:14:10.145Z,12.90
2019-03-16T09:16:50.279Z,12.40
2019-03-16T09:19:18.067Z,12.80
2019-03-16T09:21:45.951Z,12.70
2019-03-16T09:24:15.595Z,12.50
2019-03-16T09:26:45.317Z,12.70
2019-03-16T09:29:15.159Z,12.80
2019-03-16T09:31:42.395Z,12.70
2019-03-16T09:34:10.003Z,12.80
2019-03-16T09:36:37.572Z,12.50
2019-03-16T09:39:06.719Z,12.60
2019-03-16T09:41:34.429Z,12.40
2019-03-16T09:44:02.269Z,12.30
2019-03-16T09:46:29.891Z,12.40
2019-03-16T09:48:57.374Z,12.20
2019-03-16T09:51:25.336Z,12.00
2019-03-16T09:53:52.873Z,12.10
2019-03-16T09:56:20.599Z,12.00
2019-03-16T09:58:48.526Z,12.10
2019-03-16T10:01:16.062Z,12.20
2019-03-16T10:03:43.900Z,12.10
2019-03-16T10:06:12.439Z,11.90
2019-03-16T10:08:41.144Z,11.90
2019-03-16T10:11:09.007Z,12.00
2019-03-16T10:13:37.284Z,12.10
2019-03-16T10:16:04.937Z,12.20
2019-03-16T10:18:32.786Z,12.00
2019-03-16T10:21:00.763Z,11.90
2019-03-16T10:23:28.285Z,12.10
2019-03-16T10:25:55.867Z,12.10
2019-03-16T10:28:23.875Z,11.90
2019-03-16T10:30:51.724Z,12.10
2019-03-16T10:33:19.568Z,12.10
2019-03-16T10:35:47.206Z,12.30
2019-03-16T10:38:15.031Z,12.30
2019-03-16T10:40:42.828Z,12.30
2019-03-16T10:43:10.717Z,12.00
2019-03-16T10:45:38.859Z,12.00
2019-03-16T10:48:06.407Z,12.00
2019-03-16T10:50:34.299Z,12.50
2019-03-16T10:53:01.903Z,12.40
2019-03-16T10:55:29.407Z,12.50
2019-03-16T10:57:56.939Z,12.40
2019-03-16T11:00:24.647Z,12.70
2019-03-16T11:02:55.003Z,12.80
2019-03-16T11:05:25.473Z,12.90
2019-03-16T11:07:53.055Z,12.60
2019-03-16T11:10:20.867Z,12.70
2019-03-16T11:12:48.814Z,13.10
2019-03-16T11:15:16.887Z,13.30
2019-03-16T11:17:45.062Z,13.50
2019-03-16T11:20:12.593Z,13.50
2019-03-16T11:22:44.716Z,13.30
2019-03-16T11:25:12.924Z,13.30
2019-03-16T11:27:40.802Z,13.90
2019-03-16T11:30:09.799Z,13.90
2019-03-16T11:32:43.810Z,13.90
2019-03-16T11:35:11.971Z,13.70
2019-03-16T11:37:45.927Z,14.00
2019-03-16T11:40:14.025Z,13.80
2019-03-16T11:42:41.879Z,13.70
2019-03-16T11:45:09.696Z,13.80
2019-03-16T11:47:37.311Z,13.60
2019-03-16T11:50:05.697Z,13.50
2019-03-16T11:52:33.621Z,13.60
2019-03-16T11:55:01.161Z,13.60
2019-03-16T11:57:29.247Z,13.90
2019-03-16T11:59:57.403Z,14.40
2019-03-16T12:02:25.520Z,15.90
2019-03-16T12:04:53.422Z,16.40
2019-03-16T12:07:21.377Z,16.60
2019-03-16T12:09:49.319Z,16.80
2019-03-16T12:12:16.951Z,16.60
2019-03-16T12:14:51.801Z,15.90
2019-03-16T12:17:19.667Z,15.50
2019-03-16T12:19:47.149Z,14.50
2019-03-16T12:22:15.088Z,14.30
2019-03-16T12:24:42.713Z,14.10
2019-03-16T12:27:10.954Z,14.00
2019-03-16T12:29:38.915Z,14.00
2019-03-16T12:32:06.870Z,14.70
2019-03-16T12:34:34.719Z,14.30
2019-03-16T12:37:02.356Z,14.40
2019-03-16T12:39:30.663Z,15.20
2019-03-16T12:41:58.285Z,16.20
2019-03-16T12:44:54.768Z,16.90
2019-03-16T12:47:22.634Z,17.50
2019-03-16T12:49:50.942Z,16.70
2019-03-16T12:52:18.598Z,16.30
2019-03-16T12:54:49.521Z,16.50
2019-03-16T12:57:18.738Z,16.20
2019-03-16T12:59:47.452Z,16.00
2019-03-16T13:02:15.295Z,15.60
2019-03-16T13:04:43.358Z,15.40
2019-03-16T13:07:10.979Z,15.30
2019-03-16T13:09:42.217Z,15.00
2019-03-16T13:12:09.874Z,15.00
2019-03-16T13:14:37.716Z,14.60
2019-03-16T13:17:05.309Z,14.60
2019-03-16T13:19:44.439Z,14.40
2019-03-16T13:22:13.818Z,14.50
2019-03-16T13:24:41.363Z,14.30
2019-03-16T13:27:09.922Z,14.10
2019-03-16T13:29:39.128Z,14.00
2019-03-16T13:32:07.279Z,13.90
2019-03-16T13:34:35.641Z,14.00
2019-03-16T13:37:03.546Z,14.20
2019-03-16T13:39:31.478Z,14.30
2019-03-16T13:41:59.389Z,14.30
2019-03-16T13:44:27.742Z,14.00
2019-03-16T13:46:55.891Z,14.00
2019-03-16T13:49:24.104Z,13.70
2019-03-16T13:53:27.946Z,13.40
2019-03-16T13:55:57.229Z,13.00
2019-03-16T13:58:25.121Z,13.10
2019-03-16T14:00:53.005Z,13.10
2019-03-16T14:03:20.908Z,13.00
2019-03-16T14:05:48.999Z,12.70
2019-03-16T14:08:17.115Z,13.10
2019-03-16T14:10:44.711Z,12.90
2019-03-16T14:13:13.130Z,13.10
2019-03-16T14:15:40.762Z,12.90
2019-03-16T14:18:09.842Z,12.80
2019-03-16T14:20:38.919Z,13.00
2019-03-16T14:23:06.591Z,13.30
2019-03-16T14:25:34.443Z,13.20
2019-03-16T14:28:02.258Z,13.10
2019-03-16T14:30:41.146Z,13.40
2019-03-16T14:33:00.387Z,13.20
2019-03-16T14:35:27.951Z,13.50
2019-03-16T14:37:56.170Z,13.70
2019-03-16T14:40:24.618Z,13.60
2019-03-16T14:42:52.322Z,13.80
2019-03-16T14:45:20.039Z,13.70
2019-03-16T14:47:47.630Z,13.70
2019-03-16T14:50:19.195Z,13.90
2019-03-16T14:52:48.630Z,13.80
2019-03-16T14:55:16.146Z,13.80
2019-03-16T14:57:43.726Z,14.20
2019-03-16T15:00:12.558Z,13.90
2019-03-16T15:02:40.136Z,14.20
2019-03-16T15:05:08.824Z,14.10
2019-03-16T15:07:36.641Z,13.90
2019-03-16T15:10:06.475Z,13.90
2019-03-16T15:12:34.664Z,13.50
2019-03-16T15:15:05.175Z,13.60
2019-03-16T15:17:32.971Z,13.50
2019-03-16T15:20:01.163Z,13.60
2019-03-16T15:22:29.518Z,13.30
2019-03-16T15:24:57.629Z,13.50
2019-03-16T15:27:26.050Z,13.50
2019-03-16T15:29:53.959Z,13.50
2019-03-16T15:32:21.749Z,13.10
2019-03-16T15:34:49.678Z,13.20
2019-03-16T15:37:17.530Z,13.20
2019-03-16T15:39:45.834Z,13.10
2019-03-16T15:42:13.915Z,13.10
2019-03-16T15:44:41.827Z,13.20
2019-03-16T15:47:09.322Z,13.20
2019-03-16T15:49:40.019Z,13.40
2019-03-16T15:52:12.557Z,13.40
2019-03-16T15:54:43.867Z,13.30
2019-03-16T15:57:11.729Z,13.30
2019-03-16T15:59:40.291Z,13.10
2019-03-16T16:02:11.195Z,13.50
2019-03-16T16:04:39.639Z,13.10
2019-03-16T16:07:08.082Z,13.20
2019-03-16T16:09:38.282Z,13.00
2019-03-16T16:12:05.795Z,13.10
2019-03-16T16:14:33.546Z,13.40
2019-03-16T16:17:04.982Z,13.10
2019-03-16T16:19:32.861Z,13.40
2019-03-16T16:22:01.604Z,13.00
2019-03-16T16:24:31.555Z,12.80
2019-03-16T16:26:59.051Z,13.30
2019-03-16T16:29:27.223Z,13.20
2019-03-16T16:31:55.534Z,13.10
2019-03-16T16:34:23.338Z,13.10
2019-03-16T16:36:51.259Z,13.10
2019-03-16T16:39:18.989Z,13.20
2019-03-16T16:41:48.271Z,12.80
2019-03-16T16:44:16.071Z,13.40
2019-03-16T16:46:43.683Z,13.10
2019-03-16T16:49:11.754Z,13.10
2019-03-16T16:51:39.579Z,13.40
2019-03-16T16:54:07.061Z,13.00
2019-03-16T16:56:34.966Z,13.00
2019-03-16T16:59:03.226Z,12.90
2019-03-16T17:01:31.164Z,12.90
2019-03-16T17:03:59.031Z,13.00
2019-03-16T17:06:26.692Z,12.70
2019-03-16T17:08:54.515Z,12.60
2019-03-16T17:11:22.390Z,13.00
2019-03-16T17:13:50.215Z,13.10
2019-03-16T17:16:17.953Z,13.00
2019-03-16T17:18:45.851Z,12.70
2019-03-16T17:21:15.474Z,12.70
2019-03-16T17:23:43.326Z,13.00
2019-03-16T17:26:11.140Z,12.80
2019-03-16T17:28:41.482Z,12.70
2019-03-16T17:31:11.163Z,12.60
2019-03-16T17:33:39.451Z,12.50
2019-03-16T17:36:07.378Z,12.50
2019-03-16T17:38:34.972Z,12.60
2019-03-16T17:41:03.149Z,12.90
2019-03-16T17:43:30.738Z,12.20
2019-03-16T17:45:59.306Z,12.40
2019-03-16T17:48:29.630Z,12.30
2019-03-16T17:50:57.634Z,12.30
2019-03-16T17:53:25.726Z,12.30
2019-03-16T17:55:53.782Z,12.10
2019-03-16T17:58:21.634Z,11.90
2019-03-16T18:00:49.437Z,12.20
2019-03-16T18:03:17.606Z,12.20
2019-03-16T18:05:45.495Z,12.20
2019-03-16T18:08:13.364Z,12.20
2019-03-16T18:10:42.363Z,12.50
2019-03-16T18:13:11.242Z,12.30
2019-03-16T18:15:40.093Z,12.40
2019-03-16T18:18:07.650Z,12.30
2019-03-16T18:20:36.264Z,12.40
2019-03-16T18:23:04.066Z,12.00
2019-03-16T18:25:32.414Z,12.20
2019-03-16T18:28:00.237Z,11.90
2019-03-16T18:30:28.128Z,12.20
2019-03-16T18:32:58.032Z,12.00
2019-03-16T18:35:25.882Z,11.90
2019-03-16T18:37:54.565Z,12.00
2019-03-16T18:40:22.635Z,11.90
2019-03-16T18:42:51.206Z,11.90
2019-03-16T18:45:19.518Z,11.90
2019-03-16T18:47:50.015Z,11.90
2019-03-16T18:50:19.120Z,11.80
2019-03-16T18:52:47.268Z,12.20
2019-03-16T18:55:14.818Z,12.20
2019-03-16T18:57:42.425Z,12.20
2019-03-16T19:00:11.304Z,12.30
2019-03-16T19:02:39.446Z,12.40
2019-03-16T19:05:07.694Z,12.30
2019-03-16T19:07:35.159Z,12.50
2019-03-16T19:10:04.974Z,12.30
2019-03-16T19:12:32.839Z,12.30
2019-03-16T19:15:01.243Z,12.20
2019-03-16T19:17:29.082Z,12.30
2019-03-16T19:19:56.914Z,12.30
2019-03-16T19:22:25.647Z,12.10
2019-03-16T19:24:53.329Z,11.90
2019-03-16T19:27:21.599Z,11.90
2019-03-16T19:29:49.820Z,11.70
2019-03-16T19:32:18.196Z,11.50
2019-03-16T19:34:46.118Z,11.70
2019-03-16T19:37:14.009Z,11.70
2019-03-16T19:39:42.360Z,11.60
2019-03-16T19:42:10.167Z,11.40
2019-03-16T19:44:37.957Z,11.50
2019-03-16T19:47:07.283Z,11.50
2019-03-16T19:49:37.369Z,11.50
2019-03-16T19:52:08.209Z,11.60
2019-03-16T19:54:36.051Z,11.30
2019-03-16T19:57:15.353Z,11.40
2019-03-16T19:59:37.007Z,11.70
2019-03-16T20:02:04.468Z,11.60
2019-03-16T20:05:04.220Z,11.40
2019-03-16T20:07:32.935Z,11.20
2019-03-16T20:10:04.052Z,11.10
2019-03-16T20:12:31.862Z,11.30
2019-03-16T20:15:00.122Z,11.40
2019-03-16T20:17:27.725Z,11.20
2019-03-16T20:19:55.681Z,11.10
2019-03-16T20:22:25.830Z,11.40
2019-03-16T20:24:53.354Z,11.50
2019-03-16T20:27:21.539Z,11.70
2019-03-16T20:29:49.350Z,11.60
2019-03-16T20:32:17.007Z,11.60
2019-03-16T20:34:44.560Z,11.20
2019-03-16T20:37:12.195Z,11.50
2019-03-16T20:39:39.626Z,11.60
2019-03-16T20:42:08.475Z,11.40
2019-03-16T20:44:39.561Z,11.40
2019-03-16T20:47:08.415Z,11.20
2019-03-16T20:49:36.270Z,11.30
2019-03-16T20:52:04.858Z,11.20
2019-03-16T20:54:34.504Z,11.30
2019-03-16T20:57:03.521Z,11.10
2019-03-16T20:59:31.326Z,10.50
2019-03-16T21:01:58.943Z,11.10
2019-03-16T21:04:26.782Z,11.00
2019-03-16T21:06:54.474Z,11.20
2019-03-16T21:09:22.075Z,11.20
2019-03-16T21:11:49.900Z,11.00
2019-03-16T21:14:17.418Z,11.10
2019-03-16T21:16:45.179Z,11.00
2019-03-16T21:19:13.099Z,11.10
2019-03-16T21:21:40.849Z,11.00
2019-03-16T21:24:09.171Z,11.00
2019-03-16T21:26:36.665Z,11.00
2019-03-16T21:29:04.435Z,11.10
2019-03-16T21:31:32.531Z,10.80
2019-03-16T21:34:00.338Z,11.00
2019-03-16T21:36:36.910Z,10.90
2019-03-16T21:38:58.822Z,10.90
2019-03-16T21:41:27.066Z,11.00
2019-03-16T21:43:55.230Z,11.00
2019-03-16T21:46:23.193Z,11.00
2019-03-16T21:48:50.755Z,10.60
2019-03-16T21:51:18.609Z,11.00
2019-03-16T21:53:46.831Z,11.00
2019-03-16T21:56:15.006Z,10.50
2019-03-16T21:58:43.148Z,10.70
2019-03-16T22:01:10.689Z,10.90
2019-03-16T22:03:41.931Z,10.60
2019-03-16T22:06:07.571Z,10.70
2019-03-16T22:08:35.093Z,10.60
2019-03-16T22:11:05.324Z,10.80
2019-03-16T22:13:32.399Z,10.80
2019-03-16T22:16:00.003Z,10.80
2019-03-16T22:18:27.592Z,10.40
2019-03-16T22:20:55.570Z,10.80
2019-03-16T22:23:23.335Z,10.50
2019-03-16T22:25:51.107Z,10.70
2019-03-16T22:28:18.610Z,11.00
2019-03-16T22:30:46.097Z,10.60
2019-03-16T22:33:14.632Z,10.80
2019-03-16T22:35:42.737Z,11.10
2019-03-16T22:38:10.686Z,10.80
2019-03-16T22:40:38.870Z,10.90
2019-03-16T22:43:06.721Z,10.90
2019-03-16T22:45:34.207Z,10.80
2019-03-16T22:48:03.893Z,10.90
2019-03-16T22:50:31.461Z,10.70
2019-03-16T22:52:58.936Z,11.00
2019-03-16T22:55:26.847Z,10.70
2019-03-16T22:57:56.860Z,10.60
2019-03-16T23:00:30.018Z,10.70
2019-03-16T23:03:00.111Z,10.70
2019-03-16T23:05:28.041Z,10.40
2019-03-16T23:07:56.939Z,10.70
2019-03-16T23:10:25.034Z,10.80
2019-03-16T23:12:52.814Z,10.70
2019-03-16T23:15:21.014Z,10.70
2019-03-16T23:17:48.831Z,11.00
2019-03-16T23:20:17.186Z,10.90
2019-03-16T23:22:46.572Z,10.60
2019-03-16T23:25:15.942Z,11.00
2019-03-16T23:27:44.042Z,11.00
2019-03-16T23:30:11.868Z,10.70
2019-03-16T23:32:39.791Z,10.60
2019-03-16T23:35:07.641Z,10.60
2019-03-16T23:37:35.526Z,10.70
2019-03-16T23:40:03.052Z,10.70
2019-03-16T23:42:30.826Z,10.70
2019-03-16T23:44:58.756Z,10.70
2019-03-16T23:47:27.146Z,10.40
2019-03-16T23:49:55.030Z,10.50
2019-03-16T23:52:24.367Z,10.50
2019-03-16T23:54:52.271Z,10.40
2019-03-16T23:57:19.773Z,10.50
2019-03-16T23:59:47.728Z,10.70
